sensor_id;sensor_type;location;lat;lon;timestamp;P1;durP1;ratioP1;P2;durP2;ratioP2
59474;SDS011;45288;51.136;16.928;2023-09-12T00:02:18;88.85;;;81.28;;
59474;SDS011;45288;51.136;16.928;2023-09-12T00:04:44;154.03;;;142.43;;
59474;SDS011;45288;51.136;16.928;2023-09-12T00:07:10;143.18;;;132.18;;
59474;SDS011;45288;51.136;16.928;2023-09-12T00:09:36;204.70;;;189.05;;
59474;SDS011;45288;51.136;16.928;2023-09-12T00:12:01;193.43;;;178.18;;
59474;SDS011;45288;51.136;16.928;2023-09-12T00:14:27;246.33;;;226.93;;
59474;SDS011;45288;51.136;16.928;2023-09-12T00:16:53;326.48;;;300.52;;
59474;SDS011;45288;51.136;16.928;2023-09-12T00:19:20;298.77;;;275.30;;
59474;SDS011;45288;51.136;16.928;2023-09-12T00:21:46;522.50;;;479.63;;
59474;SDS011;45288;51.136;16.928;2023-09-12T00:24:12;164.60;;;151.53;;
59474;SDS011;45288;51.136;16.928;2023-09-12T00:26:38;101.95;;;93.30;;
59474;SDS011;45288;51.136;16.928;2023-09-12T00:29:03;317.67;;;292.43;;
59474;SDS011;45288;51.136;16.928;2023-09-12T00:31:29;227.73;;;209.77;;
59474;SDS011;45288;51.136;16.928;2023-09-12T00:33:55;96.07;;;87.80;;
59474;SDS011;45288;51.136;16.928;2023-09-12T00:36:20;52.27;;;46.53;;
59474;SDS011;45288;51.136;16.928;2023-09-12T00:38:46;34.47;;;18.27;;
59474;SDS011;45288;51.136;16.928;2023-09-12T00:41:12;41.43;;;19.10;;
59474;SDS011;45288;51.136;16.928;2023-09-12T00:43:38;42.37;;;19.20;;
59474;SDS011;45288;51.136;16.928;2023-09-12T00:46:04;38.95;;;18.98;;
59474;SDS011;45288;51.136;16.928;2023-09-12T00:48:30;39.85;;;18.85;;
59474;SDS011;45288;51.136;16.928;2023-09-12T00:50:55;47.85;;;32.60;;
59474;SDS011;45288;51.136;16.928;2023-09-12T00:53:22;256.23;;;235.63;;
59474;SDS011;45288;51.136;16.928;2023-09-12T00:55:50;112.15;;;101.72;;
59474;SDS011;45288;51.136;16.928;2023-09-12T00:58:17;83.03;;;74.78;;
59474;SDS011;45288;51.136;16.928;2023-09-12T01:00:43;35.45;;;18.38;;
59474;SDS011;45288;51.136;16.928;2023-09-12T01:03:09;36.08;;;19.30;;
59474;SDS011;45288;51.136;16.928;2023-09-12T01:05:35;37.67;;;20.57;;
59474;SDS011;45288;51.136;16.928;2023-09-12T01:08:01;35.20;;;20.77;;
59474;SDS011;45288;51.136;16.928;2023-09-12T01:10:27;40.03;;;20.97;;
59474;SDS011;45288;51.136;16.928;2023-09-12T01:12:53;36.78;;;20.85;;
59474;SDS011;45288;51.136;16.928;2023-09-12T01:15:19;38.65;;;20.33;;
59474;SDS011;45288;51.136;16.928;2023-09-12T01:17:45;40.15;;;20.35;;
59474;SDS011;45288;51.136;16.928;2023-09-12T01:20:14;40.60;;;20.58;;
59474;SDS011;45288;51.136;16.928;2023-09-12T01:27:55;52.15;;;42.53;;
59474;SDS011;45288;51.136;16.928;2023-09-12T01:30:22;38.00;;;22.05;;
59474;SDS011;45288;51.136;16.928;2023-09-12T01:32:48;33.10;;;16.57;;
59474;SDS011;45288;51.136;16.928;2023-09-12T01:35:14;33.13;;;15.73;;
59474;SDS011;45288;51.136;16.928;2023-09-12T01:37:40;31.33;;;15.70;;
59474;SDS011;45288;51.136;16.928;2023-09-12T01:40:06;29.40;;;15.97;;
59474;SDS011;45288;51.136;16.928;2023-09-12T01:42:40;36.55;;;16.80;;
59474;SDS011;45288;51.136;16.928;2023-09-12T01:45:09;84.10;;;76.03;;
59474;SDS011;45288;51.136;16.928;2023-09-12T01:47:35;40.40;;;16.27;;
59474;SDS011;45288;51.136;16.928;2023-09-12T01:50:01;76.22;;;68.10;;
59474;SDS011;45288;51.136;16.928;2023-09-12T01:52:28;31.83;;;16.05;;
59474;SDS011;45288;51.136;16.928;2023-09-12T01:54:54;35.75;;;17.15;;
59474;SDS011;45288;51.136;16.928;2023-09-12T01:57:20;34.08;;;16.35;;
59474;SDS011;45288;51.136;16.928;2023-09-12T01:59:49;31.80;;;15.02;;
59474;SDS011;45288;51.136;16.928;2023-09-12T02:02:15;30.58;;;15.18;;
59474;SDS011;45288;51.136;16.928;2023-09-12T02:04:41;33.15;;;15.98;;
59474;SDS011;45288;51.136;16.928;2023-09-12T02:07:07;27.77;;;15.13;;
59474;SDS011;45288;51.136;16.928;2023-09-12T02:09:33;31.80;;;15.50;;
59474;SDS011;45288;51.136;16.928;2023-09-12T02:11:58;32.45;;;16.38;;
59474;SDS011;45288;51.136;16.928;2023-09-12T02:14:25;34.63;;;16.15;;
59474;SDS011;45288;51.136;16.928;2023-09-12T02:16:50;39.23;;;16.57;;
59474;SDS011;45288;51.136;16.928;2023-09-12T02:19:19;36.28;;;16.15;;
59474;SDS011;45288;51.136;16.928;2023-09-12T02:21:45;36.93;;;17.20;;
59474;SDS011;45288;51.136;16.928;2023-09-12T02:24:10;31.83;;;15.47;;
59474;SDS011;45288;51.136;16.928;2023-09-12T02:26:36;40.33;;;17.75;;
59474;SDS011;45288;51.136;16.928;2023-09-12T02:29:02;33.93;;;16.60;;
59474;SDS011;45288;51.136;16.928;2023-09-12T02:31:29;38.95;;;16.80;;
59474;SDS011;45288;51.136;16.928;2023-09-12T02:33:55;28.08;;;14.88;;
59474;SDS011;45288;51.136;16.928;2023-09-12T02:36:20;37.90;;;16.77;;
59474;SDS011;45288;51.136;16.928;2023-09-12T02:38:46;30.67;;;15.50;;
59474;SDS011;45288;51.136;16.928;2023-09-12T02:41:11;31.03;;;15.07;;
59474;SDS011;45288;51.136;16.928;2023-09-12T02:43:37;33.47;;;15.52;;
59474;SDS011;45288;51.136;16.928;2023-09-12T02:46:04;32.85;;;15.52;;
59474;SDS011;45288;51.136;16.928;2023-09-12T02:48:29;30.57;;;15.30;;
59474;SDS011;45288;51.136;16.928;2023-09-12T02:50:55;30.35;;;14.98;;
59474;SDS011;45288;51.136;16.928;2023-09-12T02:53:20;27.73;;;14.37;;
59474;SDS011;45288;51.136;16.928;2023-09-12T02:55:46;33.37;;;14.47;;
59474;SDS011;45288;51.136;16.928;2023-09-12T02:58:12;24.20;;;12.88;;
59474;SDS011;45288;51.136;16.928;2023-09-12T03:00:38;33.00;;;14.20;;
59474;SDS011;45288;51.136;16.928;2023-09-12T03:03:05;27.15;;;13.82;;
59474;SDS011;45288;51.136;16.928;2023-09-12T03:05:31;31.55;;;13.95;;
59474;SDS011;45288;51.136;16.928;2023-09-12T03:07:57;33.45;;;14.23;;
59474;SDS011;45288;51.136;16.928;2023-09-12T03:10:23;33.72;;;15.70;;
59474;SDS011;45288;51.136;16.928;2023-09-12T03:12:49;28.95;;;15.10;;
59474;SDS011;45288;51.136;16.928;2023-09-12T03:15:15;32.33;;;15.07;;
59474;SDS011;45288;51.136;16.928;2023-09-12T03:17:40;30.75;;;16.15;;
59474;SDS011;45288;51.136;16.928;2023-09-12T03:20:06;32.97;;;16.20;;
59474;SDS011;45288;51.136;16.928;2023-09-12T03:22:34;33.15;;;16.95;;
59474;SDS011;45288;51.136;16.928;2023-09-12T03:25:04;30.03;;;15.53;;
59474;SDS011;45288;51.136;16.928;2023-09-12T03:27:31;40.70;;;21.73;;
59474;SDS011;45288;51.136;16.928;2023-09-12T03:29:58;30.15;;;16.08;;
59474;SDS011;45288;51.136;16.928;2023-09-12T03:32:24;39.08;;;17.95;;
59474;SDS011;45288;51.136;16.928;2023-09-12T03:34:50;33.88;;;17.60;;
59474;SDS011;45288;51.136;16.928;2023-09-12T03:37:16;40.63;;;18.92;;
59474;SDS011;45288;51.136;16.928;2023-09-12T03:39:41;36.25;;;17.30;;
59474;SDS011;45288;51.136;16.928;2023-09-12T03:42:07;40.67;;;16.67;;
59474;SDS011;45288;51.136;16.928;2023-09-12T03:44:32;38.03;;;17.17;;
59474;SDS011;45288;51.136;16.928;2023-09-12T03:46:59;31.93;;;15.67;;
59474;SDS011;45288;51.136;16.928;2023-09-12T03:49:25;40.33;;;19.63;;
59474;SDS011;45288;51.136;16.928;2023-09-12T03:51:51;40.95;;;20.38;;
59474;SDS011;45288;51.136;16.928;2023-09-12T03:54:16;36.57;;;19.43;;
59474;SDS011;45288;51.136;16.928;2023-09-12T03:56:42;39.53;;;20.07;;
59474;SDS011;45288;51.136;16.928;2023-09-12T03:59:07;41.63;;;20.58;;
59474;SDS011;45288;51.136;16.928;2023-09-12T04:01:34;37.20;;;19.88;;
59474;SDS011;45288;51.136;16.928;2023-09-12T04:04:00;40.88;;;19.83;;
59474;SDS011;45288;51.136;16.928;2023-09-12T04:06:26;39.10;;;18.10;;
59474;SDS011;45288;51.136;16.928;2023-09-12T04:08:51;41.85;;;17.48;;
59474;SDS011;45288;51.136;16.928;2023-09-12T04:11:17;36.83;;;17.35;;
59474;SDS011;45288;51.136;16.928;2023-09-12T04:13:43;39.60;;;16.90;;
59474;SDS011;45288;51.136;16.928;2023-09-12T04:16:09;39.30;;;16.07;;
59474;SDS011;45288;51.136;16.928;2023-09-12T04:18:35;35.13;;;16.30;;
59474;SDS011;45288;51.136;16.928;2023-09-12T04:21:00;35.10;;;15.80;;
59474;SDS011;45288;51.136;16.928;2023-09-12T04:23:26;39.23;;;16.73;;
59474;SDS011;45288;51.136;16.928;2023-09-12T04:25:53;34.17;;;15.75;;
59474;SDS011;45288;51.136;16.928;2023-09-12T04:28:19;42.70;;;16.23;;
59474;SDS011;45288;51.136;16.928;2023-09-12T04:30:45;40.73;;;17.37;;
59474;SDS011;45288;51.136;16.928;2023-09-12T04:33:11;35.80;;;14.85;;
59474;SDS011;45288;51.136;16.928;2023-09-12T04:35:36;41.43;;;15.03;;
59474;SDS011;45288;51.136;16.928;2023-09-12T04:38:03;41.28;;;15.20;;
59474;SDS011;45288;51.136;16.928;2023-09-12T04:40:28;49.80;;;16.87;;
59474;SDS011;45288;51.136;16.928;2023-09-12T04:42:54;51.35;;;15.73;;
59474;SDS011;45288;51.136;16.928;2023-09-12T04:45:20;53.63;;;16.67;;
59474;SDS011;45288;51.136;16.928;2023-09-12T04:47:46;63.17;;;18.42;;
59474;SDS011;45288;51.136;16.928;2023-09-12T04:50:12;64.57;;;18.17;;
59474;SDS011;45288;51.136;16.928;2023-09-12T04:52:38;74.73;;;17.97;;
59474;SDS011;45288;51.136;16.928;2023-09-12T04:55:04;55.60;;;17.00;;
59474;SDS011;45288;51.136;16.928;2023-09-12T04:57:30;64.25;;;17.23;;
59474;SDS011;45288;51.136;16.928;2023-09-12T04:59:56;53.50;;;16.25;;
59474;SDS011;45288;51.136;16.928;2023-09-12T05:02:24;46.20;;;16.60;;
59474;SDS011;45288;51.136;16.928;2023-09-12T05:04:51;45.40;;;15.82;;
59474;SDS011;45288;51.136;16.928;2023-09-12T05:07:17;58.72;;;16.90;;
59474;SDS011;45288;51.136;16.928;2023-09-12T05:09:42;73.75;;;18.35;;
59474;SDS011;45288;51.136;16.928;2023-09-12T05:12:08;67.95;;;17.98;;
59474;SDS011;45288;51.136;16.928;2023-09-12T05:14:34;69.28;;;18.73;;
59474;SDS011;45288;51.136;16.928;2023-09-12T05:17:00;67.15;;;19.73;;
59474;SDS011;45288;51.136;16.928;2023-09-12T05:19:29;72.72;;;19.48;;
59474;SDS011;45288;51.136;16.928;2023-09-12T05:21:55;67.15;;;21.63;;
59474;SDS011;45288;51.136;16.928;2023-09-12T05:24:21;79.33;;;21.27;;
59474;SDS011;45288;51.136;16.928;2023-09-12T05:26:47;60.33;;;20.27;;
59474;SDS011;45288;51.136;16.928;2023-09-12T05:29:15;69.63;;;21.50;;
59474;SDS011;45288;51.136;16.928;2023-09-12T05:31:40;64.13;;;20.93;;
59474;SDS011;45288;51.136;16.928;2023-09-12T05:34:06;54.58;;;19.67;;
59474;SDS011;45288;51.136;16.928;2023-09-12T05:36:32;71.50;;;21.75;;
59474;SDS011;45288;51.136;16.928;2023-09-12T05:38:58;54.90;;;20.48;;
59474;SDS011;45288;51.136;16.928;2023-09-12T05:41:23;66.60;;;22.27;;
59474;SDS011;45288;51.136;16.928;2023-09-12T05:43:49;77.53;;;23.23;;
59474;SDS011;45288;51.136;16.928;2023-09-12T05:46:15;64.57;;;21.17;;
59474;SDS011;45288;51.136;16.928;2023-09-12T05:48:41;63.63;;;22.60;;
59474;SDS011;45288;51.136;16.928;2023-09-12T05:51:07;61.83;;;23.00;;
59474;SDS011;45288;51.136;16.928;2023-09-12T05:53:32;57.70;;;23.33;;
59474;SDS011;45288;51.136;16.928;2023-09-12T05:55:58;59.65;;;22.98;;
59474;SDS011;45288;51.136;16.928;2023-09-12T05:58:24;53.70;;;22.47;;
59474;SDS011;45288;51.136;16.928;2023-09-12T06:00:49;56.88;;;22.90;;
59474;SDS011;45288;51.136;16.928;2023-09-12T06:03:16;57.08;;;22.05;;
59474;SDS011;45288;51.136;16.928;2023-09-12T06:05:42;48.93;;;23.00;;
59474;SDS011;45288;51.136;16.928;2023-09-12T06:08:07;54.78;;;22.17;;
59474;SDS011;45288;51.136;16.928;2023-09-12T06:10:33;53.73;;;23.00;;
59474;SDS011;45288;51.136;16.928;2023-09-12T06:12:59;55.28;;;21.77;;
59474;SDS011;45288;51.136;16.928;2023-09-12T06:15:25;53.33;;;22.70;;
59474;SDS011;45288;51.136;16.928;2023-09-12T06:17:50;59.17;;;21.67;;
59474;SDS011;45288;51.136;16.928;2023-09-12T06:20:16;46.95;;;20.40;;
59474;SDS011;45288;51.136;16.928;2023-09-12T06:22:42;48.90;;;21.50;;
59474;SDS011;45288;51.136;16.928;2023-09-12T06:25:09;52.25;;;21.95;;
59474;SDS011;45288;51.136;16.928;2023-09-12T06:27:37;53.07;;;20.87;;
59474;SDS011;45288;51.136;16.928;2023-09-12T06:30:03;46.73;;;19.67;;
59474;SDS011;45288;51.136;16.928;2023-09-12T06:32:31;48.60;;;20.58;;
59474;SDS011;45288;51.136;16.928;2023-09-12T06:34:57;46.03;;;20.17;;
59474;SDS011;45288;51.136;16.928;2023-09-12T06:37:22;53.88;;;22.38;;
59474;SDS011;45288;51.136;16.928;2023-09-12T06:39:51;50.97;;;20.90;;
59474;SDS011;45288;51.136;16.928;2023-09-12T06:42:17;53.15;;;21.48;;
59474;SDS011;45288;51.136;16.928;2023-09-12T06:44:43;45.93;;;21.57;;
59474;SDS011;45288;51.136;16.928;2023-09-12T06:47:08;55.88;;;22.40;;
59474;SDS011;45288;51.136;16.928;2023-09-12T06:49:35;50.75;;;31.33;;
59474;SDS011;45288;51.136;16.928;2023-09-12T06:52:03;41.60;;;22.50;;
59474;SDS011;45288;51.136;16.928;2023-09-12T06:54:28;49.58;;;23.40;;
59474;SDS011;45288;51.136;16.928;2023-09-12T06:56:54;42.30;;;22.95;;
59474;SDS011;45288;51.136;16.928;2023-09-12T06:59:20;45.15;;;22.95;;
59474;SDS011;45288;51.136;16.928;2023-09-12T07:01:46;39.63;;;21.77;;
59474;SDS011;45288;51.136;16.928;2023-09-12T07:04:12;42.27;;;21.37;;
59474;SDS011;45288;51.136;16.928;2023-09-12T07:06:37;37.92;;;21.58;;
59474;SDS011;45288;51.136;16.928;2023-09-12T07:09:03;43.20;;;21.55;;
59474;SDS011;45288;51.136;16.928;2023-09-12T07:11:30;44.03;;;20.65;;
59474;SDS011;45288;51.136;16.928;2023-09-12T07:13:55;46.35;;;21.50;;
59474;SDS011;45288;51.136;16.928;2023-09-12T07:16:21;42.88;;;21.15;;
59474;SDS011;45288;51.136;16.928;2023-09-12T07:18:50;43.33;;;20.43;;
59474;SDS011;45288;51.136;16.928;2023-09-12T07:21:15;42.13;;;21.25;;
59474;SDS011;45288;51.136;16.928;2023-09-12T07:23:41;42.37;;;20.43;;
59474;SDS011;45288;51.136;16.928;2023-09-12T07:26:11;51.05;;;20.98;;
59474;SDS011;45288;51.136;16.928;2023-09-12T07:28:37;43.08;;;19.92;;
59474;SDS011;45288;51.136;16.928;2023-09-12T07:31:02;38.43;;;19.63;;
59474;SDS011;45288;51.136;16.928;2023-09-12T07:33:28;44.63;;;19.73;;
59474;SDS011;45288;51.136;16.928;2023-09-12T07:35:54;64.72;;;43.33;;
59474;SDS011;45288;51.136;16.928;2023-09-12T07:38:20;40.25;;;19.02;;
59474;SDS011;45288;51.136;16.928;2023-09-12T07:40:46;47.20;;;19.17;;
59474;SDS011;45288;51.136;16.928;2023-09-12T07:43:12;44.77;;;19.20;;
59474;SDS011;45288;51.136;16.928;2023-09-12T07:45:38;45.28;;;19.05;;
59474;SDS011;45288;51.136;16.928;2023-09-12T07:48:07;45.33;;;19.03;;
59474;SDS011;45288;51.136;16.928;2023-09-12T07:50:34;43.10;;;19.42;;
59474;SDS011;45288;51.136;16.928;2023-09-12T07:53:04;36.88;;;17.58;;
59474;SDS011;45288;51.136;16.928;2023-09-12T07:55:30;42.85;;;18.50;;
59474;SDS011;45288;51.136;16.928;2023-09-12T07:58:02;37.10;;;17.48;;
59474;SDS011;45288;51.136;16.928;2023-09-12T08:00:28;41.40;;;18.25;;
59474;SDS011;45288;51.136;16.928;2023-09-12T08:02:54;40.75;;;18.55;;
59474;SDS011;45288;51.136;16.928;2023-09-12T08:05:20;38.85;;;17.77;;
59474;SDS011;45288;51.136;16.928;2023-09-12T08:07:48;37.40;;;16.90;;
59474;SDS011;45288;51.136;16.928;2023-09-12T08:10:13;38.70;;;16.83;;
59474;SDS011;45288;51.136;16.928;2023-09-12T08:12:39;38.80;;;16.85;;
59474;SDS011;45288;51.136;16.928;2023-09-12T08:15:06;33.80;;;16.35;;
59474;SDS011;45288;51.136;16.928;2023-09-12T08:17:31;36.50;;;16.70;;
59474;SDS011;45288;51.136;16.928;2023-09-12T08:19:57;35.53;;;16.15;;
59474;SDS011;45288;51.136;16.928;2023-09-12T08:22:23;36.37;;;16.13;;
59474;SDS011;45288;51.136;16.928;2023-09-12T08:24:48;39.63;;;17.13;;
59474;SDS011;45288;51.136;16.928;2023-09-12T08:27:14;29.35;;;16.33;;
59474;SDS011;45288;51.136;16.928;2023-09-12T08:29:40;31.75;;;16.65;;
59474;SDS011;45288;51.136;16.928;2023-09-12T08:32:07;37.00;;;16.05;;
59474;SDS011;45288;51.136;16.928;2023-09-12T08:34:33;35.22;;;16.58;;
59474;SDS011;45288;51.136;16.928;2023-09-12T08:36:58;32.27;;;16.23;;
59474;SDS011;45288;51.136;16.928;2023-09-12T08:39:25;30.33;;;15.53;;
59474;SDS011;45288;51.136;16.928;2023-09-12T08:41:51;29.25;;;14.95;;
59474;SDS011;45288;51.136;16.928;2023-09-12T08:44:17;30.97;;;14.57;;
59474;SDS011;45288;51.136;16.928;2023-09-12T08:46:43;33.47;;;14.87;;
59474;SDS011;45288;51.136;16.928;2023-09-12T08:49:09;27.77;;;14.73;;
59474;SDS011;45288;51.136;16.928;2023-09-12T08:51:37;30.25;;;14.52;;
59474;SDS011;45288;51.136;16.928;2023-09-12T08:54:03;31.27;;;13.77;;
59474;SDS011;45288;51.136;16.928;2023-09-12T08:56:29;31.70;;;14.77;;
59474;SDS011;45288;51.136;16.928;2023-09-12T08:58:56;29.60;;;14.15;;
59474;SDS011;45288;51.136;16.928;2023-09-12T09:01:22;27.20;;;13.25;;
59474;SDS011;45288;51.136;16.928;2023-09-12T09:03:49;28.45;;;13.68;;
59474;SDS011;45288;51.136;16.928;2023-09-12T09:06:14;28.20;;;13.60;;
59474;SDS011;45288;51.136;16.928;2023-09-12T09:08:41;26.27;;;13.32;;
59474;SDS011;45288;51.136;16.928;2023-09-12T09:11:08;23.50;;;12.90;;
59474;SDS011;45288;51.136;16.928;2023-09-12T09:13:35;29.10;;;13.77;;
59474;SDS011;45288;51.136;16.928;2023-09-12T09:21:25;23.67;;;12.60;;
59474;SDS011;45288;51.136;16.928;2023-09-12T09:23:51;22.70;;;13.07;;
59474;SDS011;45288;51.136;16.928;2023-09-12T09:26:17;24.15;;;12.48;;
59474;SDS011;45288;51.136;16.928;2023-09-12T09:28:43;27.33;;;13.47;;
59474;SDS011;45288;51.136;16.928;2023-09-12T09:31:10;26.08;;;12.57;;
59474;SDS011;45288;51.136;16.928;2023-09-12T09:33:36;25.73;;;12.50;;
59474;SDS011;45288;51.136;16.928;2023-09-12T09:36:03;21.63;;;12.52;;
59474;SDS011;45288;51.136;16.928;2023-09-12T09:38:29;23.97;;;12.80;;
59474;SDS011;45288;51.136;16.928;2023-09-12T09:40:55;26.33;;;12.65;;
59474;SDS011;45288;51.136;16.928;2023-09-12T09:43:21;24.58;;;12.45;;
59474;SDS011;45288;51.136;16.928;2023-09-12T09:45:46;28.27;;;13.35;;
59474;SDS011;45288;51.136;16.928;2023-09-12T09:48:22;26.25;;;13.00;;
59474;SDS011;45288;51.136;16.928;2023-09-12T09:50:48;24.83;;;12.50;;
59474;SDS011;45288;51.136;16.928;2023-09-12T09:53:14;24.17;;;12.38;;
59474;SDS011;45288;51.136;16.928;2023-09-12T09:55:41;23.25;;;11.93;;
59474;SDS011;45288;51.136;16.928;2023-09-12T09:58:07;21.33;;;11.75;;
59474;SDS011;45288;51.136;16.928;2023-09-12T10:00:34;22.17;;;12.33;;
59474;SDS011;45288;51.136;16.928;2023-09-12T10:03:03;21.63;;;11.82;;
59474;SDS011;45288;51.136;16.928;2023-09-12T10:05:30;20.75;;;11.32;;
59474;SDS011;45288;51.136;16.928;2023-09-12T10:07:56;24.90;;;12.18;;
59474;SDS011;45288;51.136;16.928;2023-09-12T10:10:24;22.50;;;11.57;;
59474;SDS011;45288;51.136;16.928;2023-09-12T10:12:51;25.65;;;12.75;;
59474;SDS011;45288;51.136;16.928;2023-09-12T10:15:19;24.07;;;12.10;;
59474;SDS011;45288;51.136;16.928;2023-09-12T10:17:46;24.80;;;11.73;;
59474;SDS011;45288;51.136;16.928;2023-09-12T10:20:15;29.77;;;13.40;;
59474;SDS011;45288;51.136;16.928;2023-09-12T10:22:43;23.83;;;12.45;;
59474;SDS011;45288;51.136;16.928;2023-09-12T10:25:12;27.77;;;12.45;;
59474;SDS011;45288;51.136;16.928;2023-09-12T10:27:38;25.45;;;12.25;;
59474;SDS011;45288;51.136;16.928;2023-09-12T10:30:05;23.65;;;11.48;;
59474;SDS011;45288;51.136;16.928;2023-09-12T10:32:31;22.25;;;11.55;;
59474;SDS011;45288;51.136;16.928;2023-09-12T10:34:58;23.10;;;11.93;;
59474;SDS011;45288;51.136;16.928;2023-09-12T10:37:24;21.63;;;11.00;;
59474;SDS011;45288;51.136;16.928;2023-09-12T10:39:50;19.80;;;10.95;;
59474;SDS011;45288;51.136;16.928;2023-09-12T10:42:18;20.58;;;11.32;;
59474;SDS011;45288;51.136;16.928;2023-09-12T10:44:45;22.92;;;12.30;;
59474;SDS011;45288;51.136;16.928;2023-09-12T10:47:11;21.40;;;10.73;;
59474;SDS011;45288;51.136;16.928;2023-09-12T10:49:37;21.55;;;11.48;;
59474;SDS011;45288;51.136;16.928;2023-09-12T10:52:03;21.17;;;10.80;;
59474;SDS011;45288;51.136;16.928;2023-09-12T10:54:39;18.38;;;10.55;;
59474;SDS011;45288;51.136;16.928;2023-09-12T10:57:06;19.23;;;10.93;;
59474;SDS011;45288;51.136;16.928;2023-09-12T10:59:31;17.95;;;10.45;;
59474;SDS011;45288;51.136;16.928;2023-09-12T11:04:45;25.33;;;11.40;;
59474;SDS011;45288;51.136;16.928;2023-09-12T11:12:55;20.35;;;11.05;;
59474;SDS011;45288;51.136;16.928;2023-09-12T11:15:23;18.67;;;10.27;;
59474;SDS011;45288;51.136;16.928;2023-09-12T11:17:49;19.80;;;11.18;;
59474;SDS011;45288;51.136;16.928;2023-09-12T11:20:24;23.67;;;11.00;;
59474;SDS011;45288;51.136;16.928;2023-09-12T11:22:50;18.63;;;11.00;;
59474;SDS011;45288;51.136;16.928;2023-09-12T11:25:25;17.08;;;10.40;;
59474;SDS011;45288;51.136;16.928;2023-09-12T11:32:44;18.25;;;10.80;;
59474;SDS011;45288;51.136;16.928;2023-09-12T11:35:11;20.70;;;11.48;;
59474;SDS011;45288;51.136;16.928;2023-09-12T11:37:37;19.58;;;11.02;;
59474;SDS011;45288;51.136;16.928;2023-09-12T11:40:45;19.60;;;11.05;;
59474;SDS011;45288;51.136;16.928;2023-09-12T11:42:52;23.42;;;11.57;;
59474;SDS011;45288;51.136;16.928;2023-09-12T11:45:19;22.67;;;11.00;;
59474;SDS011;45288;51.136;16.928;2023-09-12T11:47:45;17.92;;;10.27;;
59474;SDS011;45288;51.136;16.928;2023-09-12T11:50:30;17.13;;;10.80;;
59474;SDS011;45288;51.136;16.928;2023-09-12T11:53:03;20.17;;;11.30;;
59474;SDS011;45288;51.136;16.928;2023-09-12T11:55:33;21.02;;;11.65;;
59474;SDS011;45288;51.136;16.928;2023-09-12T11:57:59;20.15;;;11.52;;
59474;SDS011;45288;51.136;16.928;2023-09-12T12:00:26;16.13;;;10.50;;
59474;SDS011;45288;51.136;16.928;2023-09-12T12:02:53;19.73;;;10.98;;
59474;SDS011;45288;51.136;16.928;2023-09-12T12:05:19;19.73;;;11.13;;
59474;SDS011;45288;51.136;16.928;2023-09-12T12:07:44;21.08;;;11.27;;
59474;SDS011;45288;51.136;16.928;2023-09-12T12:10:13;19.85;;;11.15;;
59474;SDS011;45288;51.136;16.928;2023-09-12T12:12:38;20.87;;;11.43;;
59474;SDS011;45288;51.136;16.928;2023-09-12T12:15:09;22.95;;;12.00;;
59474;SDS011;45288;51.136;16.928;2023-09-12T12:17:34;15.80;;;10.68;;
59474;SDS011;45288;51.136;16.928;2023-09-12T12:20:00;19.98;;;11.38;;
59474;SDS011;45288;51.136;16.928;2023-09-12T12:22:26;19.98;;;10.95;;
59474;SDS011;45288;51.136;16.928;2023-09-12T12:24:51;23.07;;;11.17;;
59474;SDS011;45288;51.136;16.928;2023-09-12T12:27:17;18.93;;;11.00;;
59474;SDS011;45288;51.136;16.928;2023-09-12T12:29:43;18.90;;;11.17;;
59474;SDS011;45288;51.136;16.928;2023-09-12T12:32:14;18.75;;;11.00;;
59474;SDS011;45288;51.136;16.928;2023-09-12T12:34:40;19.52;;;11.05;;
59474;SDS011;45288;51.136;16.928;2023-09-12T12:37:06;18.93;;;11.70;;
59474;SDS011;45288;51.136;16.928;2023-09-12T12:39:31;22.07;;;11.20;;
59474;SDS011;45288;51.136;16.928;2023-09-12T12:41:58;20.25;;;11.70;;
59474;SDS011;45288;51.136;16.928;2023-09-12T12:44:32;20.87;;;11.03;;
59474;SDS011;45288;51.136;16.928;2023-09-12T12:46:58;18.77;;;11.57;;
59474;SDS011;45288;51.136;16.928;2023-09-12T12:49:23;16.80;;;11.47;;
59474;SDS011;45288;51.136;16.928;2023-09-12T12:51:50;19.67;;;11.80;;
59474;SDS011;45288;51.136;16.928;2023-09-12T12:54:15;18.20;;;11.30;;
59474;SDS011;45288;51.136;16.928;2023-09-12T12:56:42;19.17;;;11.80;;
59474;SDS011;45288;51.136;16.928;2023-09-12T12:59:08;19.40;;;11.43;;
59474;SDS011;45288;51.136;16.928;2023-09-12T13:01:36;16.58;;;11.43;;
59474;SDS011;45288;51.136;16.928;2023-09-12T13:04:04;18.67;;;11.25;;
59474;SDS011;45288;51.136;16.928;2023-09-12T13:06:30;16.60;;;11.32;;
59474;SDS011;45288;51.136;16.928;2023-09-12T13:08:55;21.73;;;12.03;;
59474;SDS011;45288;51.136;16.928;2023-09-12T13:11:22;18.05;;;11.77;;
59474;SDS011;45288;51.136;16.928;2023-09-12T13:13:48;19.00;;;12.25;;
59474;SDS011;45288;51.136;16.928;2023-09-12T13:16:14;19.98;;;12.68;;
59474;SDS011;45288;51.136;16.928;2023-09-12T13:18:40;20.70;;;12.05;;
59474;SDS011;45288;51.136;16.928;2023-09-12T13:21:07;22.30;;;12.38;;
59474;SDS011;45288;51.136;16.928;2023-09-12T13:23:36;21.00;;;12.27;;
59474;SDS011;45288;51.136;16.928;2023-09-12T13:26:02;21.70;;;13.00;;
59474;SDS011;45288;51.136;16.928;2023-09-12T13:28:28;18.35;;;11.88;;
59474;SDS011;45288;51.136;16.928;2023-09-12T13:30:54;21.05;;;12.18;;
59474;SDS011;45288;51.136;16.928;2023-09-12T13:33:20;18.83;;;12.25;;
59474;SDS011;45288;51.136;16.928;2023-09-12T13:35:46;19.67;;;12.70;;
59474;SDS011;45288;51.136;16.928;2023-09-12T13:38:12;19.33;;;12.05;;
59474;SDS011;45288;51.136;16.928;2023-09-12T13:40:39;22.67;;;13.02;;
59474;SDS011;45288;51.136;16.928;2023-09-12T13:43:08;23.70;;;12.50;;
59474;SDS011;45288;51.136;16.928;2023-09-12T13:45:34;18.88;;;12.48;;
59474;SDS011;45288;51.136;16.928;2023-09-12T13:48:00;19.48;;;12.35;;
59474;SDS011;45288;51.136;16.928;2023-09-12T13:50:26;18.50;;;12.13;;
59474;SDS011;45288;51.136;16.928;2023-09-12T13:52:55;18.98;;;12.32;;
59474;SDS011;45288;51.136;16.928;2023-09-12T13:55:22;20.25;;;11.68;;
59474;SDS011;45288;51.136;16.928;2023-09-12T13:57:48;20.20;;;12.40;;
59474;SDS011;45288;51.136;16.928;2023-09-12T14:00:14;21.92;;;12.35;;
59474;SDS011;45288;51.136;16.928;2023-09-12T14:02:40;17.45;;;11.68;;
59474;SDS011;45288;51.136;16.928;2023-09-12T14:05:06;24.33;;;12.77;;
59474;SDS011;45288;51.136;16.928;2023-09-12T14:07:31;19.10;;;12.10;;
59474;SDS011;45288;51.136;16.928;2023-09-12T14:09:57;21.20;;;12.88;;
59474;SDS011;45288;51.136;16.928;2023-09-12T14:12:23;21.73;;;12.60;;
59474;SDS011;45288;51.136;16.928;2023-09-12T14:14:49;19.58;;;12.68;;
59474;SDS011;45288;51.136;16.928;2023-09-12T14:17:25;19.25;;;12.38;;
59474;SDS011;45288;51.136;16.928;2023-09-12T14:19:50;17.52;;;12.30;;
59474;SDS011;45288;51.136;16.928;2023-09-12T14:22:16;16.98;;;11.82;;
59474;SDS011;45288;51.136;16.928;2023-09-12T14:24:42;21.17;;;13.05;;
59474;SDS011;45288;51.136;16.928;2023-09-12T14:27:07;19.93;;;12.60;;
59474;SDS011;45288;51.136;16.928;2023-09-12T14:29:33;16.97;;;11.43;;